sensor_id;sensor_type;location;lat;lon;timestamp;P1;durP1;ratioP1;P2;durP2;ratioP2
15637;SDS011;26604;53.596;10.042;2022-07-23T00:00:15;4.50;;;1.30;;
15637;SDS011;26604;53.596;10.042;2022-07-23T00:02:43;3.78;;;1.10;;
15637;SDS011;26604;53.596;10.042;2022-07-23T00:05:10;4.00;;;0.95;;
15637;SDS011;26604;53.596;10.042;2022-07-23T00:07:39;3.22;;;1.30;;
15637;SDS011;26604;53.596;10.042;2022-07-23T00:10:06;9.88;;;1.23;;
15637;SDS011;26604;53.596;10.042;2022-07-23T00:12:34;9.38;;;1.10;;
15637;SDS011;26604;53.596;10.042;2022-07-23T00:15:02;2.95;;;1.00;;
15637;SDS011;26604;53.596;10.042;2022-07-23T00:17:30;4.03;;;1.13;;
15637;SDS011;26604;53.596;10.042;2022-07-23T00:19:57;6.05;;;1.23;;
15637;SDS011;26604;53.596;10.042;2022-07-23T00:22:24;7.40;;;1.17;;
15637;SDS011;26604;53.596;10.042;2022-07-23T00:24:52;5.78;;;1.13;;
15637;SDS011;26604;53.596;10.042;2022-07-23T00:27:19;4.55;;;0.88;;
15637;SDS011;26604;53.596;10.042;2022-07-23T00:29:46;6.22;;;0.90;;
15637;SDS011;26604;53.596;10.042;2022-07-23T00:32:13;8.05;;;1.08;;
15637;SDS011;26604;53.596;10.042;2022-07-23T00:34:41;4.05;;;1.20;;
15637;SDS011;26604;53.596;10.042;2022-07-23T00:37:07;3.25;;;1.27;;
15637;SDS011;26604;53.596;10.042;2022-07-23T00:39:34;4.13;;;1.00;;
15637;SDS011;26604;53.596;10.042;2022-07-23T00:42:03;3.67;;;1.10;;
15637;SDS011;26604;53.596;10.042;2022-07-23T00:44:30;3.38;;;0.85;;
15637;SDS011;26604;53.596;10.042;2022-07-23T00:46:57;2.72;;;1.10;;
15637;SDS011;26604;53.596;10.042;2022-07-23T00:49:26;5.97;;;1.10;;
15637;SDS011;26604;53.596;10.042;2022-07-23T00:51:56;4.28;;;1.15;;
15637;SDS011;26604;53.596;10.042;2022-07-23T00:54:26;7.55;;;1.20;;
15637;SDS011;26604;53.596;10.042;2022-07-23T00:56:53;4.82;;;1.40;;
15637;SDS011;26604;53.596;10.042;2022-07-23T00:59:22;6.10;;;1.02;;
15637;SDS011;26604;53.596;10.042;2022-07-23T01:01:49;3.75;;;0.80;;
15637;SDS011;26604;53.596;10.042;2022-07-23T01:04:16;3.88;;;0.88;;
15637;SDS011;26604;53.596;10.042;2022-07-23T01:06:43;2.40;;;0.77;;
15637;SDS011;26604;53.596;10.042;2022-07-23T01:09:11;3.10;;;0.65;;
15637;SDS011;26604;53.596;10.042;2022-07-23T01:11:38;2.28;;;0.93;;
15637;SDS011;26604;53.596;10.042;2022-07-23T01:14:13;2.70;;;0.70;;
15637;SDS011;26604;53.596;10.042;2022-07-23T01:16:45;7.22;;;0.90;;
15637;SDS011;26604;53.596;10.042;2022-07-23T01:19:13;1.85;;;0.65;;
15637;SDS011;26604;53.596;10.042;2022-07-23T01:21:42;1.90;;;0.90;;
15637;SDS011;26604;53.596;10.042;2022-07-23T01:24:11;5.45;;;0.82;;
15637;SDS011;26604;53.596;10.042;2022-07-23T01:26:40;2.10;;;0.80;;
15637;SDS011;26604;53.596;10.042;2022-07-23T01:29:09;2.13;;;0.80;;
15637;SDS011;26604;53.596;10.042;2022-07-23T01:31:36;4.40;;;0.85;;
15637;SDS011;26604;53.596;10.042;2022-07-23T01:34:03;2.35;;;0.95;;
15637;SDS011;26604;53.596;10.042;2022-07-23T01:36:32;1.05;;;0.40;;
15637;SDS011;26604;53.596;10.042;2022-07-23T01:38:59;1.85;;;0.73;;
15637;SDS011;26604;53.596;10.042;2022-07-23T01:41:27;3.13;;;1.05;;
15637;SDS011;26604;53.596;10.042;2022-07-23T01:43:54;1.95;;;0.70;;
15637;SDS011;26604;53.596;10.042;2022-07-23T01:46:21;1.98;;;0.75;;
15637;SDS011;26604;53.596;10.042;2022-07-23T01:48:48;1.52;;;0.73;;
15637;SDS011;26604;53.596;10.042;2022-07-23T01:51:15;2.78;;;0.70;;
15637;SDS011;26604;53.596;10.042;2022-07-23T01:53:42;1.50;;;0.75;;
15637;SDS011;26604;53.596;10.042;2022-07-23T01:56:09;3.30;;;0.70;;
15637;SDS011;26604;53.596;10.042;2022-07-23T01:58:37;2.65;;;0.80;;
15637;SDS011;26604;53.596;10.042;2022-07-23T02:01:04;1.88;;;0.75;;
15637;SDS011;26604;53.596;10.042;2022-07-23T02:03:31;1.67;;;0.70;;
15637;SDS011;26604;53.596;10.042;2022-07-23T02:05:58;1.27;;;0.63;;
15637;SDS011;26604;53.596;10.042;2022-07-23T02:08:25;2.30;;;0.70;;
15637;SDS011;26604;53.596;10.042;2022-07-23T02:10:52;2.25;;;0.70;;
15637;SDS011;26604;53.596;10.042;2022-07-23T02:13:19;2.65;;;0.90;;
15637;SDS011;26604;53.596;10.042;2022-07-23T02:15:47;1.48;;;0.40;;
15637;SDS011;26604;53.596;10.042;2022-07-23T02:18:14;2.17;;;0.70;;
15637;SDS011;26604;53.596;10.042;2022-07-23T02:20:41;2.13;;;0.50;;
15637;SDS011;26604;53.596;10.042;2022-07-23T02:23:09;2.53;;;0.50;;
15637;SDS011;26604;53.596;10.042;2022-07-23T02:25:36;1.13;;;0.68;;
15637;SDS011;26604;53.596;10.042;2022-07-23T02:28:03;2.95;;;0.77;;
15637;SDS011;26604;53.596;10.042;2022-07-23T02:30:30;1.45;;;0.45;;
15637;SDS011;26604;53.596;10.042;2022-07-23T02:32:59;1.65;;;0.60;;
15637;SDS011;26604;53.596;10.042;2022-07-23T02:35:25;1.70;;;0.60;;
15637;SDS011;26604;53.596;10.042;2022-07-23T02:37:52;1.23;;;0.50;;
15637;SDS011;26604;53.596;10.042;2022-07-23T02:40:19;6.07;;;0.80;;
15637;SDS011;26604;53.596;10.042;2022-07-23T02:42:46;1.27;;;0.57;;
15637;SDS011;26604;53.596;10.042;2022-07-23T02:45:13;2.08;;;0.70;;
15637;SDS011;26604;53.596;10.042;2022-07-23T02:47:40;1.05;;;0.60;;
15637;SDS011;26604;53.596;10.042;2022-07-23T02:50:08;0.80;;;0.50;;
15637;SDS011;26604;53.596;10.042;2022-07-23T02:52:37;2.63;;;0.80;;
15637;SDS011;26604;53.596;10.042;2022-07-23T02:55:04;3.75;;;0.70;;
15637;SDS011;26604;53.596;10.042;2022-07-23T02:57:31;2.28;;;0.70;;
15637;SDS011;26604;53.596;10.042;2022-07-23T02:59:58;1.20;;;0.70;;
15637;SDS011;26604;53.596;10.042;2022-07-23T03:02:25;6.47;;;0.60;;
15637;SDS011;26604;53.596;10.042;2022-07-23T03:04:52;2.15;;;0.60;;
15637;SDS011;26604;53.596;10.042;2022-07-23T03:07:20;1.40;;;0.50;;
15637;SDS011;26604;53.596;10.042;2022-07-23T03:09:47;1.48;;;0.60;;
15637;SDS011;26604;53.596;10.042;2022-07-23T03:12:15;0.77;;;0.70;;
15637;SDS011;26604;53.596;10.042;2022-07-23T03:14:42;0.85;;;0.50;;
15637;SDS011;26604;53.596;10.042;2022-07-23T03:17:09;4.05;;;0.70;;
15637;SDS011;26604;53.596;10.042;2022-07-23T03:19:35;2.42;;;0.60;;
15637;SDS011;26604;53.596;10.042;2022-07-23T03:22:03;2.42;;;0.50;;
15637;SDS011;26604;53.596;10.042;2022-07-23T03:24:31;1.20;;;0.50;;
15637;SDS011;26604;53.596;10.042;2022-07-23T03:27:12;2.00;;;0.60;;
15637;SDS011;26604;53.596;10.042;2022-07-23T03:29:39;1.95;;;0.68;;
15637;SDS011;26604;53.596;10.042;2022-07-23T03:32:06;0.63;;;0.50;;
15637;SDS011;26604;53.596;10.042;2022-07-23T03:34:33;1.55;;;0.70;;
15637;SDS011;26604;53.596;10.042;2022-07-23T03:37:00;2.30;;;0.80;;
15637;SDS011;26604;53.596;10.042;2022-07-23T03:39:27;3.03;;;0.77;;
15637;SDS011;26604;53.596;10.042;2022-07-23T03:41:55;2.22;;;0.60;;
15637;SDS011;26604;53.596;10.042;2022-07-23T03:44:22;2.15;;;0.88;;
15637;SDS011;26604;53.596;10.042;2022-07-23T03:46:49;2.63;;;0.65;;
15637;SDS011;26604;53.596;10.042;2022-07-23T03:49:16;1.02;;;0.70;;
15637;SDS011;26604;53.596;10.042;2022-07-23T03:51:43;4.75;;;0.70;;
15637;SDS011;26604;53.596;10.042;2022-07-23T03:54:10;7.07;;;1.42;;
15637;SDS011;26604;53.596;10.042;2022-07-23T03:56:37;5.20;;;0.82;;
15637;SDS011;26604;53.596;10.042;2022-07-23T03:59:05;6.05;;;1.27;;
15637;SDS011;26604;53.596;10.042;2022-07-23T04:01:32;4.95;;;0.80;;
15637;SDS011;26604;53.596;10.042;2022-07-23T04:03:59;2.85;;;0.88;;
15637;SDS011;26604;53.596;10.042;2022-07-23T04:06:26;1.35;;;0.68;;
15637;SDS011;26604;53.596;10.042;2022-07-23T04:08:53;1.83;;;0.70;;
15637;SDS011;26604;53.596;10.042;2022-07-23T04:11:20;1.63;;;0.50;;
15637;SDS011;26604;53.596;10.042;2022-07-23T04:13:47;2.08;;;0.80;;
15637;SDS011;26604;53.596;10.042;2022-07-23T04:16:15;2.42;;;0.73;;
15637;SDS011;26604;53.596;10.042;2022-07-23T04:18:42;3.85;;;0.90;;
15637;SDS011;26604;53.596;10.042;2022-07-23T04:21:09;4.10;;;0.90;;
15637;SDS011;26604;53.596;10.042;2022-07-23T04:23:36;1.38;;;0.60;;
15637;SDS011;26604;53.596;10.042;2022-07-23T04:26:03;4.10;;;0.60;;
15637;SDS011;26604;53.596;10.042;2022-07-23T04:28:30;3.88;;;0.80;;
15637;SDS011;26604;53.596;10.042;2022-07-23T04:30:57;1.55;;;0.70;;
15637;SDS011;26604;53.596;10.042;2022-07-23T04:33:26;2.35;;;1.02;;
15637;SDS011;26604;53.596;10.042;2022-07-23T04:35:53;3.20;;;0.90;;
15637;SDS011;26604;53.596;10.042;2022-07-23T04:38:20;4.38;;;0.65;;
15637;SDS011;26604;53.596;10.042;2022-07-23T04:40:47;7.95;;;0.90;;
15637;SDS011;26604;53.596;10.042;2022-07-23T04:43:13;3.35;;;0.70;;
15637;SDS011;26604;53.596;10.042;2022-07-23T04:45:40;1.73;;;0.80;;
15637;SDS011;26604;53.596;10.042;2022-07-23T04:48:07;5.43;;;0.63;;
15637;SDS011;26604;53.596;10.042;2022-07-23T04:50:35;1.73;;;0.70;;
15637;SDS011;26604;53.596;10.042;2022-07-23T04:53:02;5.00;;;1.35;;
15637;SDS011;26604;53.596;10.042;2022-07-23T04:55:29;3.50;;;1.10;;
15637;SDS011;26604;53.596;10.042;2022-07-23T04:57:56;1.27;;;0.80;;
15637;SDS011;26604;53.596;10.042;2022-07-23T05:00:23;2.80;;;0.70;;
15637;SDS011;26604;53.596;10.042;2022-07-23T05:02:50;2.65;;;0.70;;
15637;SDS011;26604;53.596;10.042;2022-07-23T05:05:17;1.10;;;0.47;;
15637;SDS011;26604;53.596;10.042;2022-07-23T05:07:45;1.80;;;0.73;;
15637;SDS011;26604;53.596;10.042;2022-07-23T05:10:12;3.00;;;1.00;;
15637;SDS011;26604;53.596;10.042;2022-07-23T05:12:39;1.33;;;0.52;;
15637;SDS011;26604;53.596;10.042;2022-07-23T05:15:06;5.28;;;1.25;;
15637;SDS011;26604;53.596;10.042;2022-07-23T05:17:33;1.63;;;0.70;;
15637;SDS011;26604;53.596;10.042;2022-07-23T05:20:00;1.50;;;0.65;;
15637;SDS011;26604;53.596;10.042;2022-07-23T05:22:27;3.30;;;0.93;;
15637;SDS011;26604;53.596;10.042;2022-07-23T05:24:56;3.45;;;0.80;;
15637;SDS011;26604;53.596;10.042;2022-07-23T05:27:23;5.15;;;1.00;;
15637;SDS011;26604;53.596;10.042;2022-07-23T05:29:50;3.30;;;0.70;;
15637;SDS011;26604;53.596;10.042;2022-07-23T05:32:17;4.68;;;1.00;;
15637;SDS011;26604;53.596;10.042;2022-07-23T05:34:44;6.90;;;0.90;;
15637;SDS011;26604;53.596;10.042;2022-07-23T05:37:11;3.38;;;0.50;;
15637;SDS011;26604;53.596;10.042;2022-07-23T05:39:38;4.95;;;0.95;;
15637;SDS011;26604;53.596;10.042;2022-07-23T05:42:06;3.90;;;0.93;;
15637;SDS011;26604;53.596;10.042;2022-07-23T05:44:33;3.08;;;0.70;;
15637;SDS011;26604;53.596;10.042;2022-07-23T05:47:00;5.90;;;0.85;;
15637;SDS011;26604;53.596;10.042;2022-07-23T05:49:27;1.58;;;0.70;;
15637;SDS011;26604;53.596;10.042;2022-07-23T05:51:54;2.53;;;0.80;;
15637;SDS011;26604;53.596;10.042;2022-07-23T05:54:21;3.13;;;0.80;;
15637;SDS011;26604;53.596;10.042;2022-07-23T05:56:48;2.63;;;1.05;;
15637;SDS011;26604;53.596;10.042;2022-07-23T05:59:16;1.15;;;0.60;;
15637;SDS011;26604;53.596;10.042;2022-07-23T06:01:43;4.22;;;0.70;;
15637;SDS011;26604;53.596;10.042;2022-07-23T06:04:10;3.60;;;1.02;;
15637;SDS011;26604;53.596;10.042;2022-07-23T06:06:37;4.13;;;0.90;;
15637;SDS011;26604;53.596;10.042;2022-07-23T06:09:04;2.88;;;0.80;;
15637;SDS011;26604;53.596;10.042;2022-07-23T06:11:31;3.05;;;0.77;;
15637;SDS011;26604;53.596;10.042;2022-07-23T06:13:58;1.23;;;0.50;;
15637;SDS011;26604;53.596;10.042;2022-07-23T06:16:26;2.67;;;0.60;;
15637;SDS011;26604;53.596;10.042;2022-07-23T06:18:53;2.70;;;0.80;;
15637;SDS011;26604;53.596;10.042;2022-07-23T06:21:20;0.77;;;0.70;;
15637;SDS011;26604;53.596;10.042;2022-07-23T06:23:47;2.10;;;0.52;;
15637;SDS011;26604;53.596;10.042;2022-07-23T06:26:14;1.35;;;0.60;;
15637;SDS011;26604;53.596;10.042;2022-07-23T06:28:41;1.27;;;0.60;;
15637;SDS011;26604;53.596;10.042;2022-07-23T06:31:07;0.95;;;0.65;;
15637;SDS011;26604;53.596;10.042;2022-07-23T06:33:36;1.63;;;0.50;;
15637;SDS011;26604;53.596;10.042;2022-07-23T06:36:03;0.60;;;0.52;;
15637;SDS011;26604;53.596;10.042;2022-07-23T06:38:30;0.95;;;0.63;;
15637;SDS011;26604;53.596;10.042;2022-07-23T06:40:57;4.15;;;0.60;;
15637;SDS011;26604;53.596;10.042;2022-07-23T06:43:23;1.88;;;0.60;;
15637;SDS011;26604;53.596;10.042;2022-07-23T06:45:50;0.82;;;0.40;;
15637;SDS011;26604;53.596;10.042;2022-07-23T06:48:17;1.08;;;0.57;;
15637;SDS011;26604;53.596;10.042;2022-07-23T06:50:45;1.95;;;0.45;;
15637;SDS011;26604;53.596;10.042;2022-07-23T06:53:12;0.63;;;0.40;;
15637;SDS011;26604;53.596;10.042;2022-07-23T06:55:39;1.42;;;0.50;;
15637;SDS011;26604;53.596;10.042;2022-07-23T06:58:06;1.42;;;0.50;;
15637;SDS011;26604;53.596;10.042;2022-07-23T07:00:34;0.40;;;0.35;;
15637;SDS011;26604;53.596;10.042;2022-07-23T07:03:01;2.78;;;0.50;;
15637;SDS011;26604;53.596;10.042;2022-07-23T07:05:28;1.25;;;0.50;;
15637;SDS011;26604;53.596;10.042;2022-07-23T07:07:56;1.55;;;0.55;;
15637;SDS011;26604;53.596;10.042;2022-07-23T07:10:23;1.27;;;0.50;;
15637;SDS011;26604;53.596;10.042;2022-07-23T07:12:50;0.77;;;0.50;;
15637;SDS011;26604;53.596;10.042;2022-07-23T07:15:17;0.52;;;0.47;;
15637;SDS011;26604;53.596;10.042;2022-07-23T07:17:44;1.80;;;0.50;;
15637;SDS011;26604;53.596;10.042;2022-07-23T07:20:10;1.25;;;0.50;;
15637;SDS011;26604;53.596;10.042;2022-07-23T07:22:37;2.25;;;0.60;;
15637;SDS011;26604;53.596;10.042;2022-07-23T07:25:06;0.80;;;0.52;;
15637;SDS011;26604;53.596;10.042;2022-07-23T07:27:34;1.08;;;0.50;;
15637;SDS011;26604;53.596;10.042;2022-07-23T07:30:01;1.08;;;0.30;;
15637;SDS011;26604;53.596;10.042;2022-07-23T07:32:28;1.27;;;0.40;;
15637;SDS011;26604;53.596;10.042;2022-07-23T07:34:57;1.05;;;0.50;;
15637;SDS011;26604;53.596;10.042;2022-07-23T07:37:24;1.35;;;0.38;;
15637;SDS011;26604;53.596;10.042;2022-07-23T07:39:51;0.85;;;0.30;;
15637;SDS011;26604;53.596;10.042;2022-07-23T07:42:19;0.52;;;0.40;;
15637;SDS011;26604;53.596;10.042;2022-07-23T07:44:46;0.65;;;0.30;;
15637;SDS011;26604;53.596;10.042;2022-07-23T07:47:13;0.52;;;0.30;;
15637;SDS011;26604;53.596;10.042;2022-07-23T07:49:40;0.65;;;0.40;;
15637;SDS011;26604;53.596;10.042;2022-07-23T07:52:07;1.50;;;0.50;;
15637;SDS011;26604;53.596;10.042;2022-07-23T07:54:34;0.57;;;0.43;;
15637;SDS011;26604;53.596;10.042;2022-07-23T07:57:01;0.40;;;0.40;;
15637;SDS011;26604;53.596;10.042;2022-07-23T07:59:29;1.50;;;0.43;;
15637;SDS011;26604;53.596;10.042;2022-07-23T08:01:56;1.85;;;0.52;;
15637;SDS011;26604;53.596;10.042;2022-07-23T08:04:23;0.38;;;0.30;;
15637;SDS011;26604;53.596;10.042;2022-07-23T08:06:50;0.68;;;0.40;;
15637;SDS011;26604;53.596;10.042;2022-07-23T08:09:17;0.40;;;0.40;;
15637;SDS011;26604;53.596;10.042;2022-07-23T08:11:44;0.70;;;0.40;;
15637;SDS011;26604;53.596;10.042;2022-07-23T08:14:10;0.30;;;0.30;;
15637;SDS011;26604;53.596;10.042;2022-07-23T08:16:39;1.20;;;0.38;;
15637;SDS011;26604;53.596;10.042;2022-07-23T08:19:06;1.85;;;0.40;;
15637;SDS011;26604;53.596;10.042;2022-07-23T08:21:32;0.93;;;0.38;;
15637;SDS011;26604;53.596;10.042;2022-07-23T08:23:59;1.73;;;0.52;;
15637;SDS011;26604;53.596;10.042;2022-07-23T08:26:26;0.40;;;0.30;;
15637;SDS011;26604;53.596;10.042;2022-07-23T08:28:53;1.23;;;0.52;;
15637;SDS011;26604;53.596;10.042;2022-07-23T08:31:20;0.40;;;0.32;;
15637;SDS011;26604;53.596;10.042;2022-07-23T08:33:48;1.95;;;0.60;;
15637;SDS011;26604;53.596;10.042;2022-07-23T08:36:15;1.70;;;0.50;;
15637;SDS011;26604;53.596;10.042;2022-07-23T08:38:42;1.65;;;0.50;;
15637;SDS011;26604;53.596;10.042;2022-07-23T08:41:09;2.70;;;0.60;;
15637;SDS011;26604;53.596;10.042;2022-07-23T08:43:36;0.40;;;0.40;;
15637;SDS011;26604;53.596;10.042;2022-07-23T08:46:03;2.40;;;0.60;;
15637;SDS011;26604;53.596;10.042;2022-07-23T08:48:31;1.48;;;0.57;;
15637;SDS011;26604;53.596;10.042;2022-07-23T08:51:01;1.05;;;0.40;;
15637;SDS011;26604;53.596;10.042;2022-07-23T08:53:29;0.95;;;0.63;;
15637;SDS011;26604;53.596;10.042;2022-07-23T08:55:59;2.38;;;0.57;;
15637;SDS011;26604;53.596;10.042;2022-07-23T08:58:28;2.60;;;0.38;;
15637;SDS011;26604;53.596;10.042;2022-07-23T09:00:55;0.88;;;0.43;;
15637;SDS011;26604;53.596;10.042;2022-07-23T09:03:23;1.77;;;0.40;;
15637;SDS011;26604;53.596;10.042;2022-07-23T09:05:52;0.40;;;0.30;;
15637;SDS011;26604;53.596;10.042;2022-07-23T09:08:22;0.82;;;0.55;;
15637;SDS011;26604;53.596;10.042;2022-07-23T09:10:51;2.05;;;0.52;;
15637;SDS011;26604;53.596;10.042;2022-07-23T09:13:28;0.95;;;0.50;;
15637;SDS011;26604;53.596;10.042;2022-07-23T09:16:07;2.00;;;0.50;;
15637;SDS011;26604;53.596;10.042;2022-07-23T09:18:38;0.52;;;0.30;;
15637;SDS011;26604;53.596;10.042;2022-07-23T09:21:13;1.02;;;0.40;;
15637;SDS011;26604;53.596;10.042;2022-07-23T09:23:43;0.63;;;0.40;;
15637;SDS011;26604;53.596;10.042;2022-07-23T09:26:16;0.70;;;0.45;;
15637;SDS011;26604;53.596;10.042;2022-07-23T09:28:55;1.42;;;0.40;;
15637;SDS011;26604;53.596;10.042;2022-07-23T09:31:24;2.05;;;0.40;;
15637;SDS011;26604;53.596;10.042;2022-07-23T09:33:51;0.40;;;0.38;;
15637;SDS011;26604;53.596;10.042;2022-07-23T09:36:36;0.50;;;0.43;;
15637;SDS011;26604;53.596;10.042;2022-07-23T09:39:05;0.65;;;0.40;;
15637;SDS011;26604;53.596;10.042;2022-07-23T09:41:37;1.83;;;0.60;;
15637;SDS011;26604;53.596;10.042;2022-07-23T09:44:09;1.27;;;0.30;;
15637;SDS011;26604;53.596;10.042;2022-07-23T09:46:39;3.42;;;0.55;;
15637;SDS011;26604;53.596;10.042;2022-07-23T09:49:11;0.85;;;0.40;;
15637;SDS011;26604;53.596;10.042;2022-07-23T09:51:43;0.90;;;0.50;;
15637;SDS011;26604;53.596;10.042;2022-07-23T09:54:21;0.68;;;0.38;;
15637;SDS011;26604;53.596;10.042;2022-07-23T09:56:54;0.85;;;0.60;;
15637;SDS011;26604;53.596;10.042;2022-07-23T09:59:23;1.33;;;0.35;;
15637;SDS011;26604;53.596;10.042;2022-07-23T10:01:52;1.33;;;0.50;;
15637;SDS011;26604;53.596;10.042;2022-07-23T10:04:20;1.05;;;0.43;;
15637;SDS011;26604;53.596;10.042;2022-07-23T10:06:49;1.17;;;0.52;;
15637;SDS011;26604;53.596;10.042;2022-07-23T10:09:20;1.65;;;0.50;;
15637;SDS011;26604;53.596;10.042;2022-07-23T10:11:50;1.85;;;0.40;;
15637;SDS011;26604;53.596;10.042;2022-07-23T10:14:20;0.77;;;0.40;;
15637;SDS011;26604;53.596;10.042;2022-07-23T10:16:47;1.17;;;0.40;;
15637;SDS011;26604;53.596;10.042;2022-07-23T10:19:14;1.08;;;0.50;;
15637;SDS011;26604;53.596;10.042;2022-07-23T10:21:44;0.90;;;0.30;;
15637;SDS011;26604;53.596;10.042;2022-07-23T10:24:20;0.32;;;0.30;;
15637;SDS011;26604;53.596;10.042;2022-07-23T10:26:58;1.05;;;0.38;;
15637;SDS011;26604;53.596;10.042;2022-07-23T10:29:36;0.82;;;0.50;;
15637;SDS011;26604;53.596;10.042;2022-07-23T10:32:17;1.05;;;0.50;;
15637;SDS011;26604;53.596;10.042;2022-07-23T10:34:50;1.70;;;0.40;;
15637;SDS011;26604;53.596;10.042;2022-07-23T10:37:26;2.13;;;0.32;;
15637;SDS011;26604;53.596;10.042;2022-07-23T10:40:09;1.92;;;0.40;;
15637;SDS011;26604;53.596;10.042;2022-07-23T10:42:37;0.73;;;0.50;;
15637;SDS011;26604;53.596;10.042;2022-07-23T10:45:25;0.80;;;0.45;;
15637;SDS011;26604;53.596;10.042;2022-07-23T10:47:53;1.45;;;0.50;;
15637;SDS011;26604;53.596;10.042;2022-07-23T10:50:22;0.80;;;0.45;;
15637;SDS011;26604;53.596;10.042;2022-07-23T10:55:47;1.00;;;0.40;;
15637;SDS011;26604;53.596;10.042;2022-07-23T10:58:19;2.88;;;0.60;;
15637;SDS011;26604;53.596;10.042;2022-07-23T11:00:48;2.13;;;0.50;;
15637;SDS011;26604;53.596;10.042;2022-07-23T11:03:27;3.97;;;0.60;;
15637;SDS011;26604;53.596;10.042;2022-07-23T11:05:57;4.75;;;0.80;;
15637;SDS011;26604;53.596;10.042;2022-07-23T11:08:24;4.88;;;0.63;;
15637;SDS011;26604;53.596;10.042;2022-07-23T11:10:53;3.13;;;0.80;;
15637;SDS011;26604;53.596;10.042;2022-07-23T11:13:28;3.08;;;0.70;;
15637;SDS011;26604;53.596;10.042;2022-07-23T11:16:03;1.83;;;0.70;;
15637;SDS011;26604;53.596;10.042;2022-07-23T11:18:54;4.05;;;0.60;;
15637;SDS011;26604;53.596;10.042;2022-07-23T11:21:39;3.10;;;0.60;;
15637;SDS011;26604;53.596;10.042;2022-07-23T11:24:08;2.50;;;0.70;;
15637;SDS011;26604;53.596;10.042;2022-07-23T11:26:44;1.98;;;0.73;;
15637;SDS011;26604;53.596;10.042;2022-07-23T11:32:05;1.08;;;0.60;;
15637;SDS011;26604;53.596;10.042;2022-07-23T11:34:44;0.73;;;0.40;;
15637;SDS011;26604;53.596;10.042;2022-07-23T11:37:12;1.45;;;0.50;;
15637;SDS011;26604;53.596;10.042;2022-07-23T11:39:54;0.93;;;0.32;;
15637;SDS011;26604;53.596;10.042;2022-07-23T11:42:23;1.52;;;0.60;;
15637;SDS011;26604;53.596;10.042;2022-07-23T11:44:50;0.40;;;0.30;;
15637;SDS011;26604;53.596;10.042;2022-07-23T11:47:21;1.88;;;0.50;;
15637;SDS011;26604;53.596;10.042;2022-07-23T11:49:52;0.52;;;0.20;;
15637;SDS011;26604;53.596;10.042;2022-07-23T11:52:20;2.95;;;0.60;;
15637;SDS011;26604;53.596;10.042;2022-07-23T11:54:48;1.20;;;0.57;;
15637;SDS011;26604;53.596;10.042;2022-07-23T11:57:16;0.85;;;0.60;;
15637;SDS011;26604;53.596;10.042;2022-07-23T11:59:45;2.30;;;0.93;;
15637;SDS011;26604;53.596;10.042;2022-07-23T12:02:13;0.98;;;0.50;;
15637;SDS011;26604;53.596;10.042;2022-07-23T12:04:40;1.75;;;0.70;;
15637;SDS011;26604;53.596;10.042;2022-07-23T12:07:24;2.83;;;0.60;;
15637;SDS011;26604;53.596;10.042;2022-07-23T12:09:53;3.17;;;0.60;;
15637;SDS011;26604;53.596;10.042;2022-07-23T12:12:20;0.70;;;0.70;;
15637;SDS011;26604;53.596;10.042;2022-07-23T12:14:49;1.95;;;0.75;;
15637;SDS011;26604;53.596;10.042;2022-07-23T12:17:17;1.50;;;0.90;;
15637;SDS011;26604;53.596;10.042;2022-07-23T12:19:44;4.38;;;0.70;;
15637;SDS011;26604;53.596;10.042;2022-07-23T12:22:12;6.13;;;1.10;;
15637;SDS011;26604;53.596;10.042;2022-07-23T12:24:53;6.65;;;1.00;;
15637;SDS011;26604;53.596;10.042;2022-07-23T12:27:24;2.30;;;1.35;;
15637;SDS011;26604;53.596;10.042;2022-07-23T12:29:53;2.55;;;1.08;;
15637;SDS011;26604;53.596;10.042;2022-07-23T12:32:20;3.05;;;0.77;;
15637;SDS011;26604;53.596;10.042;2022-07-23T12:34:49;4.75;;;0.60;;
15637;SDS011;26604;53.596;10.042;2022-07-23T12:37:27;2.08;;;0.68;;
15637;SDS011;26604;53.596;10.042;2022-07-23T12:39:56;1.83;;;0.95;;
15637;SDS011;26604;53.596;10.042;2022-07-23T12:42:23;2.92;;;0.70;;
15637;SDS011;26604;53.596;10.042;2022-07-23T12:45:08;3.10;;;1.25;;
15637;SDS011;26604;53.596;10.042;2022-07-23T12:47:53;3.20;;;0.60;;
15637;SDS011;26604;53.596;10.042;2022-07-23T12:50:35;1.73;;;0.90;;
15637;SDS011;26604;53.596;10.042;2022-07-23T12:53:04;3.38;;;0.70;;
15637;SDS011;26604;53.596;10.042;2022-07-23T12:55:33;2.33;;;0.80;;
15637;SDS011;26604;53.596;10.042;2022-07-23T12:58:04;1.42;;;0.70;;
15637;SDS011;26604;53.596;10.042;2022-07-23T13:00:34;1.45;;;1.02;;
15637;SDS011;26604;53.596;10.042;2022-07-23T13:03:23;1.95;;;0.60;;
15637;SDS011;26604;53.596;10.042;2022-07-23T13:05:50;1.95;;;0.60;;
15637;SDS011;26604;53.596;10.042;2022-07-23T13:08:18;1.50;;;0.60;;
15637;SDS011;26604;53.596;10.042;2022-07-23T13:10:44;1.98;;;0.68;;
15637;SDS011;26604;53.596;10.042;2022-07-23T13:13:14;2.45;;;0.70;;
15637;SDS011;26604;53.596;10.042;2022-07-23T13:15:43;1.00;;;0.50;;
15637;SDS011;26604;53.596;10.042;2022-07-23T13:18:10;2.55;;;0.80;;
15637;SDS011;26604;53.596;10.042;2022-07-23T13:20:37;3.63;;;0.75;;
15637;SDS011;26604;53.596;10.042;2022-07-23T13:23:04;2.72;;;0.77;;
15637;SDS011;26604;53.596;10.042;2022-07-23T13:25:32;2.20;;;0.65;;
15637;SDS011;26604;53.596;10.042;2022-07-23T13:27:59;1.80;;;0.50;;
15637;SDS011;26604;53.596;10.042;2022-07-23T13:30:26;2.67;;;0.77;;
15637;SDS011;26604;53.596;10.042;2022-07-23T13:32:54;1.27;;;0.80;;
15637;SDS011;26604;53.596;10.042;2022-07-23T13:35:21;5.65;;;0.70;;
15637;SDS011;26604;53.596;10.042;2022-07-23T13:37:49;2.10;;;0.68;;
15637;SDS011;26604;53.596;10.042;2022-07-23T13:40:16;1.77;;;1.00;;
15637;SDS011;26604;53.596;10.042;2022-07-23T13:42:43;2.50;;;0.85;;
15637;SDS011;26604;53.596;10.042;2022-07-23T13:45:10;0.82;;;0.50;;
15637;SDS011;26604;53.596;10.042;2022-07-23T13:47:37;0.80;;;0.63;;
15637;SDS011;26604;53.596;10.042;2022-07-23T13:50:06;0.65;;;0.60;;
15637;SDS011;26604;53.596;10.042;2022-07-23T13:52:34;1.15;;;0.60;;
15637;SDS011;26604;53.596;10.042;2022-07-23T13:55:01;3.95;;;0.70;;
15637;SDS011;26604;53.596;10.042;2022-07-23T13:57:29;2.40;;;1.00;;
15637;SDS011;26604;53.596;10.042;2022-07-23T13:59:56;6.22;;;1.40;;
15637;SDS011;26604;53.596;10.042;2022-07-23T14:02:23;7.70;;;1.08;;
15637;SDS011;26604;53.596;10.042;2022-07-23T14:04:51;3.95;;;0.80;;
15637;SDS011;26604;53.596;10.042;2022-07-23T14:07:19;2.83;;;0.90;;
15637;SDS011;26604;53.596;10.042;2022-07-23T14:09:46;4.57;;;1.35;;
15637;SDS011;26604;53.596;10.042;2022-07-23T14:12:14;3.03;;;0.95;;
15637;SDS011;26604;53.596;10.042;2022-07-23T14:14:41;6.00;;;1.00;;
15637;SDS011;26604;53.596;10.042;2022-07-23T14:17:08;5.68;;;0.77;;
15637;SDS011;26604;53.596;10.042;2022-07-23T14:19:35;5.05;;;1.10;;
15637;SDS011;26604;53.596;10.042;2022-07-23T14:22:02;3.20;;;1.02;;
15637;SDS011;26604;53.596;10.042;2022-07-23T14:24:30;2.40;;;0.70;;
15637;SDS011;26604;53.596;10.042;2022-07-23T14:26:58;3.30;;;0.90;;
15637;SDS011;26604;53.596;10.042;2022-07-23T14:29:26;2.70;;;0.70;;
15637;SDS011;26604;53.596;10.042;2022-07-23T14:31:52;3.03;;;0.80;;
15637;SDS011;26604;53.596;10.042;2022-07-23T14:34:19;2.75;;;1.00;;
15637;SDS011;26604;53.596;10.042;2022-07-23T14:36:46;3.35;;;0.90;;
15637;SDS011;26604;53.596;10.042;2022-07-23T14:39:13;3.08;;;0.60;;
15637;SDS011;26604;53.596;10.042;2022-07-23T14:41:42;1.48;;;0.95;;
15637;SDS011;26604;53.596;10.042;2022-07-23T14:44:09;1.13;;;0.65;;
15637;SDS011;26604;53.596;10.042;2022-07-23T14:46:36;4.75;;;0.85;;